^^
Saratoga-Weather Station Historical Data
Daily Summary for December 07, 2021 Units:  Metric    English   Both
Daily Weekly Monthly Yearly Custom
  High: Low: Average:
Temperature: 5.8 °C 3 °C 4.5 °C
Dew Point: 4.2 °C 1.9 °C 2.9 °C
Humidity: 94% 84% 90%
Wind Speed: 24.1km/h 0km/h 5.4km/h
Wind Gust: 29km/h - -
Wind- - South
Pressure: 1013.5 hPa 996.6 hPa -
Precipitation: 4.1 mm    
Historical Graphs
 
 
Tabular Data for December 07, 2021
Time Temperature Dew Point Pressure Wind Wind Speed Wind Gust Humidity Rainfall Rate (Hourly) solar
00:04 4.2 °C 3.3 °C 1007.8 hPa West 6.4 km/h 9.7 km/h 94% 0.8 mm 0 W/m2
00:09 4.2 °C 3.3 °C 1007.8 hPa WNW 1.4 km/h 16.1 km/h 94% 0.8 mm 0 W/m2
00:14 4.3 °C 3.4 °C 1007.5 hPa WSW 3.2 km/h 9.7 km/h 94% 1.0 mm 0 W/m2
00:19 4.3 °C 3.4 °C 1007.8 hPa WNW 4.7 km/h 9.7 km/h 94% 1.0 mm 0 W/m2
00:24 4.4 °C 3.5 °C 1007.8 hPa West 3.2 km/h 20.9 km/h 94% 1.0 mm 0 W/m2
00:29 4.5 °C 3.6 °C 1007.8 hPa NW 3.2 km/h 16.1 km/h 94% 1.3 mm 0 W/m2
00:34 4.6 °C 3.7 °C 1008.1 hPa WSW 11.1 km/h 20.9 km/h 94% 1.3 mm 0 W/m2
00:39 4.7 °C 3.8 °C 1007.8 hPa WNW 6.4 km/h 12.9 km/h 94% 1.3 mm 0 W/m2
00:44 4.7 °C 3.8 °C 1008.1 hPa NW 14.3 km/h 16.1 km/h 94% 1.5 mm 0 W/m2
00:49 4.8 °C 3.9 °C 1008.5 hPa WNW 9.7 km/h 20.9 km/h 94% 1.5 mm 0 W/m2
00:54 4.8 °C 3.9 °C 1008.5 hPa WNW 9.7 km/h 19.3 km/h 94% 1.8 mm 0 W/m2
00:59 4.8 °C 3.9 °C 1008.5 hPa West 14.3 km/h 20.9 km/h 94% 1.5 mm 0 W/m2
01:04 4.9 °C 4 °C 1008.5 hPa West 20.9 km/h 25.7 km/h 94% 1.5 mm 0 W/m2
01:09 4.8 °C 3.8 °C 1008.5 hPa WSW 13 km/h 16.1 km/h 93% 1.8 mm 0 W/m2
01:14 4.8 °C 3.8 °C 1008.5 hPa West 3.2 km/h 24.1 km/h 93% 1.5 mm 0 W/m2
01:19 4.7 °C 3.7 °C 1008.5 hPa Calm   4.8 km/h 93% 1.5 mm 0 W/m2
01:24 4.7 °C 3.7 °C 1008.5 hPa WNW 13 km/h 14.5 km/h 93% 1.5 mm 0 W/m2
01:29 4.8 °C 3.8 °C 1008.8 hPa WSW 1.4 km/h 8 km/h 93% 1.5 mm 0 W/m2
01:34 4.8 °C 3.8 °C 1008.8 hPa West 6.4 km/h 27.4 km/h 93% 1.5 mm 0 W/m2
01:39 5 °C 4 °C 1008.8 hPa WNW 16.3 km/h 17.7 km/h 93% 1.5 mm 0 W/m2
01:44 5.1 °C 4.1 °C 1008.8 hPa West 6.4 km/h 27.4 km/h 93% 1.0 mm 0 W/m2
01:49 5.2 °C 4.2 °C 1008.8 hPa WNW 24.1 km/h 29 km/h 93% 0.8 mm 0 W/m2
01:54 5.2 °C 4 °C 1009.1 hPa West 11.1 km/h 22.5 km/h 92% 0.5 mm 0 W/m2
01:59 4.8 °C 3.3 °C 1009.1 hPa WNW 16.3 km/h 29 km/h 90% 0.8 mm 0 W/m2
02:04 4.6 °C 3.3 °C 1008.8 hPa NNW 1.4 km/h 11.3 km/h 91% 0.8 mm 0 W/m2
02:09 4.5 °C 3.3 °C 1009.1 hPa West 4.7 km/h 29 km/h 92% 0.5 mm 0 W/m2
02:14 4.6 °C 3.6 °C 1009.1 hPa WNW 4.7 km/h 12.9 km/h 93% 0.8 mm 0 W/m2
02:19 4.8 °C 3.8 °C 1009.1 hPa WNW 3.2 km/h 25.7 km/h 93% 0.8 mm 0 W/m2
02:24 4.8 °C 3.6 °C 1009.1 hPa WNW 4.7 km/h 17.7 km/h 92% 0.8 mm 0 W/m2
02:29 4.8 °C 3.6 °C 1009.5 hPa WSW 7.9 km/h 25.7 km/h 92% 0.8 mm 0 W/m2
02:34 4.7 °C 3.5 °C 1009.1 hPa WNW 7.9 km/h 20.9 km/h 92% 0.8 mm 0 W/m2
02:39 4.7 °C 3.4 °C 1009.5 hPa NW 7.9 km/h 17.7 km/h 91% 0.8 mm 0 W/m2
02:44 4.7 °C 3.4 °C 1009.5 hPa West 11.1 km/h 14.5 km/h 91% 0.8 mm 0 W/m2
02:49 4.6 °C 3.3 °C 1009.5 hPa West 11.1 km/h 16.1 km/h 91% 0.8 mm 0 W/m2
02:54 4.6 °C 3.3 °C 1009.8 hPa West 13 km/h 14.5 km/h 91% 0.5 mm 0 W/m2
02:59 4.6 °C 3.3 °C 1009.8 hPa SW 14.3 km/h 16.1 km/h 91% 0.5 mm 0 W/m2
03:04 4.5 °C 3.2 °C 1009.5 hPa West 11.1 km/h 11.3 km/h 91% 0.2 mm 0 W/m2
03:09 4.4 °C 3.1 °C 1009.5 hPa WNW 4.7 km/h 12.9 km/h 91% 0.2 mm 0 W/m2
03:14 4.4 °C 3.1 °C 1009.5 hPa West 13 km/h 14.5 km/h 91% 0.0 mm 0 W/m2
03:19 4.3 °C 3 °C 1009.8 hPa WNW 6.4 km/h 17.7 km/h 91% 0.0 mm 0 W/m2
03:24 4.3 °C 3 °C 1009.8 hPa NW 17.7 km/h 17.7 km/h 91% 0.0 mm 0 W/m2
03:29 4.2 °C 2.9 °C 1009.8 hPa West 14.3 km/h 20.9 km/h 91% 0.0 mm 0 W/m2
03:34 4.2 °C 2.7 °C 1009.8 hPa West 9.7 km/h 14.5 km/h 90% 0.0 mm 0 W/m2
03:40 4.2 °C 2.7 °C 1010.2 hPa West 13 km/h 16.1 km/h 90% 0.0 mm 0 W/m2
03:45 4.1 °C 2.6 °C 1010.2 hPa WSW 13 km/h 14.5 km/h 90% 0.0 mm 0 W/m2
03:50 4.1 °C 2.5 °C 1010.2 hPa WNW 4.7 km/h 11.3 km/h 89% 0.0 mm 0 W/m2
03:55 3.9 °C 2.3 °C 1010.5 hPa West 4.7 km/h 9.7 km/h 89% 0.0 mm 0 W/m2
04:00 3.9 °C 2.4 °C 1010.5 hPa WSW 4.7 km/h 11.3 km/h 90% 0.0 mm 0 W/m2
04:05 3.8 °C 2.3 °C 1010.5 hPa WNW 3.2 km/h 9.7 km/h 90% 0.0 mm 0 W/m2
04:10 3.8 °C 2.5 °C 1010.8 hPa WNW 4.7 km/h 12.9 km/h 91% 0.0 mm 0 W/m2
04:15 3.8 °C 2.5 °C 1010.8 hPa WSW 11.1 km/h 12.9 km/h 91% 0.0 mm 0 W/m2
04:20 3.8 °C 2.5 °C 1010.5 hPa West 9.7 km/h 19.3 km/h 91% 0.0 mm 0 W/m2
04:25 3.9 °C 2.6 °C 1010.8 hPa West 4.7 km/h 12.9 km/h 91% 0.0 mm 0 W/m2
04:30 3.9 °C 2.6 °C 1010.5 hPa West 13 km/h 19.3 km/h 91% 0.0 mm 0 W/m2
04:35 4 °C 2.5 °C 1010.8 hPa WNW 13 km/h 12.9 km/h 90% 0.0 mm 0 W/m2
04:40 3.9 °C 2.4 °C 1010.8 hPa WSW 7.9 km/h 14.5 km/h 90% 0.0 mm 0 W/m2
04:45 3.9 °C 2.4 °C 1010.8 hPa West 17.7 km/h 27.4 km/h 90% 0.0 mm 0 W/m2
04:50 3.9 °C 2.4 °C 1010.8 hPa West 20.9 km/h 20.9 km/h 90% 0.0 mm 0 W/m2
04:55 3.9 °C 2.4 °C 1010.8 hPa WSW 3.2 km/h 14.5 km/h 90% 0.0 mm 0 W/m2
05:00 3.9 °C 2.4 °C 1011.2 hPa WSW 24.1 km/h 24.1 km/h 90% 0.0 mm 0 W/m2
05:05 3.9 °C 2.4 °C 1011.2 hPa SW 7.9 km/h 20.9 km/h 90% 0.0 mm 0 W/m2
05:10 4 °C 2.5 °C 1011.2 hPa West 24.1 km/h 24.1 km/h 90% 0.0 mm 0 W/m2
05:15 4.1 °C 2.6 °C 1011.5 hPa West 6.4 km/h 16.1 km/h 90% 0.0 mm 0 W/m2
05:20 4 °C 2.4 °C 1011.5 hPa WSW 3.2 km/h 9.7 km/h 89% 0.0 mm 0 W/m2
05:25 3.9 °C 2.4 °C 1011.5 hPa WNW 13 km/h 16.1 km/h 90% 0.0 mm 0 W/m2
05:30 4 °C 2.5 °C 1011.5 hPa WSW 7.9 km/h 16.1 km/h 90% 0.0 mm 0 W/m2
05:35 4 °C 2.4 °C 1011.5 hPa WNW 17.7 km/h 17.7 km/h 89% 0.0 mm 0 W/m2
05:40 4 °C 2.4 °C 1011.5 hPa West 6.4 km/h 17.7 km/h 89% 0.0 mm 0 W/m2
05:45 4 °C 2.4 °C 1011.5 hPa WSW 14.3 km/h 17.7 km/h 89% 0.0 mm 0 W/m2
05:50 3.9 °C 2.3 °C 1011.9 hPa West 14.3 km/h 14.5 km/h 89% 0.0 mm 0 W/m2
05:55 4 °C 2.4 °C 1011.9 hPa WSW 6.4 km/h 11.3 km/h 89% 0.0 mm 0 W/m2
06:00 3.9 °C 2.3 °C 1011.9 hPa West 9.7 km/h 14.5 km/h 89% 0.0 mm 0 W/m2
06:05 3.9 °C 2.3 °C 1011.9 hPa West 6.4 km/h 11.3 km/h 89% 0.0 mm 0 W/m2
06:10 4 °C 2.4 °C 1012.2 hPa West 14.3 km/h 14.5 km/h 89% 0.0 mm 0 W/m2
06:15 4 °C 2.4 °C 1012.2 hPa SSW 6.4 km/h 14.5 km/h 89% 0.0 mm 0 W/m2
06:20 3.9 °C 2.3 °C 1012.2 hPa WSW 4.7 km/h 9.7 km/h 89% 0.0 mm 0 W/m2
06:25 3.9 °C 2.3 °C 1012.2 hPa SW 3.2 km/h 14.5 km/h 89% 0.0 mm 0 W/m2
06:30 3.9 °C 2.4 °C 1012.5 hPa WSW 6.4 km/h 6.4 km/h 90% 0.0 mm 0 W/m2
06:35 3.9 °C 2.4 °C 1012.5 hPa West 3.2 km/h 9.7 km/h 90% 0.0 mm 0 W/m2
06:40 3.8 °C 2.3 °C 1012.5 hPa WSW 3.2 km/h 8 km/h 90% 0.0 mm 0 W/m2
06:45 3.8 °C 2.3 °C 1012.5 hPa West 6.4 km/h 9.7 km/h 90% 0.0 mm 0 W/m2
06:50 3.8 °C 2.3 °C 1012.5 hPa West 4.7 km/h 4.8 km/h 90% 0.0 mm 0 W/m2
06:55 3.8 °C 2.3 °C 1012.9 hPa NW 1.4 km/h 4.8 km/h 90% 0.0 mm 0 W/m2
07:00 3.8 °C 2.5 °C 1012.5 hPa West 3.2 km/h 9.7 km/h 91% 0.0 mm 0 W/m2
07:05 3.7 °C 2.4 °C 1012.9 hPa WSW 1.4 km/h 3.2 km/h 91% 0.0 mm 0 W/m2
07:10 3.7 °C 2.4 °C 1012.9 hPa WNW 4.7 km/h 4.8 km/h 91% 0.0 mm 0 W/m2
07:15 3.7 °C 2.4 °C 1012.9 hPa Calm   3.2 km/h 91% 0.0 mm 0 W/m2
07:20 3.7 °C 2.4 °C 1012.9 hPa Calm     91% 0.0 mm 0 W/m2
07:25 3.7 °C 2.4 °C 1012.9 hPa Calm   3.2 km/h 91% 0.0 mm 0 W/m2
07:30 3.6 °C 2.3 °C 1012.9 hPa ESE 3.2 km/h 3.2 km/h 91% 0.0 mm 0 W/m2
07:35 3.6 °C 2.3 °C 1012.9 hPa Calm     91% 0.0 mm 0 W/m2
07:40 3.5 °C 2.2 °C 1012.9 hPa Calm   6.4 km/h 91% 0.0 mm 0 W/m2
07:45 3.4 °C 2.2 °C 1013.2 hPa Calm   3.2 km/h 92% 0.0 mm 0 W/m2
07:50 3.4 °C 2.2 °C 1013.2 hPa South 1.4 km/h 4.8 km/h 92% 0.0 mm 0 W/m2
07:55 3.4 °C 2.2 °C 1013.2 hPa Calm     92% 0.0 mm 0 W/m2
08:00 3.3 °C 2.1 °C 1013.2 hPa NW 6.4 km/h 11.3 km/h 92% 0.0 mm 0 W/m2
08:05 3.3 °C 2.1 °C 1013.2 hPa Calm   3.2 km/h 92% 0.0 mm 0 W/m2
08:10 3.2 °C 2 °C 1013.5 hPa NW 1.4 km/h 11.3 km/h 92% 0.0 mm 0 W/m2
08:15 3.2 °C 2 °C 1013.2 hPa WNW 3.2 km/h 4.8 km/h 92% 0.0 mm 0 W/m2
08:20 3.2 °C 2 °C 1013.2 hPa West 1.4 km/h 3.2 km/h 92% 0.0 mm 0 W/m2
08:25 3.1 °C 1.9 °C 1013.2 hPa ESE 1.4 km/h 4.8 km/h 92% 0.0 mm 5 W/m2
08:30 3.1 °C 2.1 °C 1013.2 hPa WSW 4.7 km/h 4.8 km/h 93% 0.0 mm 5 W/m2
08:35 3.1 °C 2.1 °C 1013.5 hPa WSW 1.4 km/h 6.4 km/h 93% 0.0 mm 7 W/m2
08:40 3.1 °C 2.1 °C 1013.5 hPa Calm   4.8 km/h 93% 0.0 mm 11 W/m2
08:45 3 °C 2 °C 1013.2 hPa SSE 1.4 km/h 8 km/h 93% 0.0 mm 9 W/m2
08:50 3.1 °C 2.1 °C 1013.2 hPa West 9.7 km/h 12.9 km/h 93% 0.0 mm 9 W/m2
08:56 3.1 °C 2.1 °C 1013.2 hPa Calm   3.2 km/h 93% 0.0 mm 11 W/m2
09:01 3.1 °C 2.1 °C 1013.2 hPa SW 1.4 km/h 12.9 km/h 93% 0.0 mm 12 W/m2
09:06 3.2 °C 2.2 °C 1013.2 hPa SW 1.4 km/h 3.2 km/h 93% 0.0 mm 25 W/m2
09:11 3.2 °C 2.2 °C 1013.5 hPa West 1.4 km/h 4.8 km/h 93% 0.0 mm 26 W/m2
09:16 3.2 °C 2.3 °C 1013.5 hPa Calm   3.2 km/h 94% 0.0 mm 26 W/m2
09:21 3.3 °C 2.4 °C 1013.2 hPa Calm   4.8 km/h 94% 0.0 mm 39 W/m2
09:26 3.3 °C 2.4 °C 1013.5 hPa Calm   6.4 km/h 94% 0.0 mm 21 W/m2
09:31 3.4 °C 2.5 °C 1013.2 hPa Calm   6.4 km/h 94% 0.0 mm 21 W/m2
09:36 3.4 °C 2.4 °C 1013.2 hPa Calm   1.6 km/h 93% 0.0 mm 21 W/m2
09:41 3.4 °C 2.4 °C 1013.2 hPa North 1.4 km/h 6.4 km/h 93% 0.0 mm 39 W/m2
09:46 3.4 °C 2.4 °C 1012.9 hPa Calm   1.6 km/h 93% 0.0 mm 35 W/m2
09:51 3.4 °C 2.4 °C 1012.9 hPa Calm   3.2 km/h 93% 0.0 mm 37 W/m2
09:56 3.4 °C 2.4 °C 1012.9 hPa Calm     93% 0.0 mm 53 W/m2
10:01 3.4 °C 2.4 °C 1012.9 hPa Calm     93% 0.0 mm 44 W/m2
10:06 3.6 °C 2.7 °C 1013.2 hPa Calm   9.7 km/h 94% 0.0 mm 54 W/m2
10:11 3.6 °C 2.7 °C 1013.2 hPa Calm   3.2 km/h 94% 0.0 mm 33 W/m2
10:16 3.7 °C 2.7 °C 1012.9 hPa Calm   4.8 km/h 93% 0.0 mm 35 W/m2
10:21 3.8 °C 2.8 °C 1012.9 hPa NNE 1.4 km/h 6.4 km/h 93% 0.0 mm 44 W/m2
10:26 3.8 °C 2.8 °C 1012.9 hPa East 3.2 km/h 9.7 km/h 93% 0.0 mm 44 W/m2
10:31 3.8 °C 2.8 °C 1012.9 hPa North 1.4 km/h 3.2 km/h 93% 0.0 mm 60 W/m2
10:36 3.9 °C 2.9 °C 1012.9 hPa NE 4.7 km/h 6.4 km/h 93% 0.0 mm 54 W/m2
10:41 3.9 °C 2.9 °C 1012.9 hPa North 3.2 km/h 4.8 km/h 93% 0.0 mm 39 W/m2
10:46 4 °C 2.8 °C 1012.9 hPa NW 1.4 km/h 3.2 km/h 92% 0.0 mm 42 W/m2
10:51 4.1 °C 2.9 °C 1013.2 hPa WNW 4.7 km/h 11.3 km/h 92% 0.0 mm 56 W/m2
10:56 4.1 °C 2.9 °C 1012.9 hPa West 11.1 km/h 12.9 km/h 92% 0.0 mm 63 W/m2
11:01 4.1 °C 2.9 °C 1012.9 hPa WNW 3.2 km/h 6.4 km/h 92% 0.0 mm 53 W/m2
11:06 4.1 °C 2.9 °C 1012.9 hPa Calm   12.9 km/h 92% 0.0 mm 62 W/m2
11:11 4.2 °C 3 °C 1012.9 hPa North 1.4 km/h 6.4 km/h 92% 0.0 mm 81 W/m2
11:16 4.2 °C 3 °C 1012.9 hPa Calm   4.8 km/h 92% 0.0 mm 47 W/m2
11:21 4.3 °C 3.1 °C 1012.9 hPa Calm   6.4 km/h 92% 0.0 mm 63 W/m2
11:26 4.3 °C 3.1 °C 1012.5 hPa NNW 4.7 km/h 4.8 km/h 92% 0.0 mm 105 W/m2
11:31 4.4 °C 3.2 °C 1012.2 hPa East 3.2 km/h 4.8 km/h 92% 0.0 mm 95 W/m2
11:36 4.4 °C 3.2 °C 1012.2 hPa NNE 1.4 km/h 6.4 km/h 92% 0.0 mm 98 W/m2
11:41 4.6 °C 3.3 °C 1012.2 hPa NNW 3.2 km/h 4.8 km/h 91% 0.0 mm 88 W/m2
11:46 4.6 °C 3.3 °C 1012.2 hPa Calm   6.4 km/h 91% 0.0 mm 58 W/m2
11:51 4.6 °C 3.3 °C 1011.9 hPa NNW 1.4 km/h 3.2 km/h 91% 0.0 mm 53 W/m2
11:56 4.7 °C 3.4 °C 1011.9 hPa NNE 1.4 km/h 1.6 km/h 91% 0.0 mm 102 W/m2
12:01 4.8 °C 3.5 °C 1011.9 hPa NNW 3.2 km/h 3.2 km/h 91% 0.0 mm 104 W/m2
12:06 4.8 °C 3.5 °C 1011.5 hPa SE 1.4 km/h 6.4 km/h 91% 0.0 mm 83 W/m2
12:11 4.8 °C 3.3 °C 1011.5 hPa North 1.4 km/h 3.2 km/h 90% 0.0 mm 111 W/m2
12:16 4.9 °C 3.2 °C 1011.2 hPa NE 1.4 km/h 3.2 km/h 89% 0.0 mm 105 W/m2
12:21 4.9 °C 3.1 °C 1011.2 hPa North 1.4 km/h 8 km/h 88% 0.0 mm 102 W/m2
12:26 4.9 °C 3.1 °C 1011.2 hPa NNW 4.7 km/h 8 km/h 88% 0.0 mm 111 W/m2
12:31 5 °C 3.2 °C 1011.2 hPa Calm   4.8 km/h 88% 0.0 mm 79 W/m2
12:36 5.1 °C 3.1 °C 1011.2 hPa NE 3.2 km/h 8 km/h 87% 0.0 mm 86 W/m2
12:41 5.1 °C 3.1 °C 1011.2 hPa North 1.4 km/h 3.2 km/h 87% 0.0 mm 84 W/m2
12:46 5.2 °C 3.2 °C 1011.2 hPa North 4.8 km/h 4.8 km/h 87% 0.0 mm 67 W/m2
12:51 5.2 °C 3.1 °C 1010.8 hPa NNW 6.4 km/h 9.7 km/h 86% 0.0 mm 77 W/m2
12:56 5.2 °C 3.1 °C 1010.8 hPa West 1.4 km/h 8 km/h 86% 0.0 mm 79 W/m2
13:01 5.2 °C 3.1 °C 1010.8 hPa NNW 3.2 km/h 9.7 km/h 86% 0.0 mm 91 W/m2
13:06 5.2 °C 2.9 °C 1010.5 hPa NE 3.2 km/h 3.2 km/h 85% 0.0 mm 120 W/m2
13:11 5.3 °C 3 °C 1010.5 hPa ENE 3.2 km/h 6.4 km/h 85% 0.0 mm 116 W/m2
13:16 5.3 °C 3 °C 1010.2 hPa NE 4.7 km/h 4.8 km/h 85% 0.0 mm 105 W/m2
13:21 5.4 °C 2.9 °C 1010.2 hPa WNW 3.2 km/h 6.4 km/h 84% 0.0 mm 127 W/m2
13:27 5.4 °C 3.1 °C 1010.2 hPa NE 1.4 km/h 4.8 km/h 85% 0.0 mm 127 W/m2
13:32 5.6 °C 3.3 °C 1010.2 hPa Calm   3.2 km/h 85% 0.0 mm 100 W/m2
13:37 5.6 °C 3.3 °C 1009.8 hPa East 6.4 km/h 6.4 km/h 85% 0.0 mm 104 W/m2
13:42 5.7 °C 3.2 °C 1009.8 hPa NE 1.4 km/h 3.2 km/h 84% 0.0 mm 81 W/m2
13:47 5.7 °C 3.4 °C 1009.8 hPa Calm     85% 0.0 mm 97 W/m2
13:52 5.8 °C 3.5 °C 1009.5 hPa ESE 1.4 km/h 6.4 km/h 85% 0.0 mm 81 W/m2
13:57 5.8 °C 3.5 °C 1009.5 hPa East 6.4 km/h 6.4 km/h 85% 0.0 mm 62 W/m2
14:02 5.7 °C 3.4 °C 1009.1 hPa Calm   6.4 km/h 85% 0.0 mm 70 W/m2
14:07 5.8 °C 3.5 °C 1008.8 hPa SE 4.7 km/h 9.7 km/h 85% 0.0 mm 98 W/m2
14:12 5.8 °C 3.6 °C 1008.8 hPa Calm   3.2 km/h 86% 0.0 mm 76 W/m2
14:17 5.8 °C 3.6 °C 1008.8 hPa ESE 3.2 km/h 9.7 km/h 86% 0.0 mm 88 W/m2
14:22 5.8 °C 3.6 °C 1008.8 hPa ESE 9.7 km/h 11.3 km/h 86% 0.0 mm 76 W/m2
14:27 5.8 °C 3.8 °C 1008.5 hPa East 3.2 km/h 12.9 km/h 87% 0.0 mm 86 W/m2
14:32 5.8 °C 3.8 °C 1008.5 hPa ENE 4.7 km/h 9.7 km/h 87% 0.0 mm 84 W/m2
14:37 5.8 °C 3.8 °C 1008.5 hPa East 6.4 km/h 14.5 km/h 87% 0.0 mm 72 W/m2
14:42 5.8 °C 4 °C 1008.1 hPa ENE 4.7 km/h 6.4 km/h 88% 0.0 mm 54 W/m2
14:47 5.7 °C 3.9 °C 1008.1 hPa East 1.4 km/h 9.7 km/h 88% 0.0 mm 46 W/m2
14:52 5.7 °C 3.9 °C 1008.1 hPa ESE 4.7 km/h 12.9 km/h 88% 0.0 mm 47 W/m2
14:57 5.7 °C 3.9 °C 1008.1 hPa ESE 3.2 km/h 8 km/h 88% 0.0 mm 62 W/m2
15:02 5.7 °C 3.9 °C 1007.8 hPa East 4.7 km/h 12.9 km/h 88% 0.0 mm 54 W/m2
15:07 5.7 °C 3.9 °C 1007.8 hPa ENE 4.7 km/h 12.9 km/h 88% 0.0 mm 53 W/m2
15:12 5.7 °C 3.7 °C 1007.5 hPa ENE 6.4 km/h 9.7 km/h 87% 0.0 mm 49 W/m2
15:17 5.6 °C 3.6 °C 1007.5 hPa ESE 16.3 km/h 16.1 km/h 87% 0.0 mm 42 W/m2
15:22 5.6 °C 3.4 °C 1007.5 hPa ESE 13 km/h 20.9 km/h 86% 0.0 mm 42 W/m2
15:27 5.6 °C 3.4 °C 1007.5 hPa ESE 4.7 km/h 9.7 km/h 86% 0.0 mm 35 W/m2
15:32 5.6 °C 3.4 °C 1007.5 hPa ENE 7.9 km/h 12.9 km/h 86% 0.0 mm 32 W/m2
15:37 5.6 °C 3.4 °C 1007.5 hPa ESE 6.4 km/h 24.1 km/h 86% 0.0 mm 23 W/m2
15:42 5.5 °C 3.2 °C 1007.5 hPa ESE 13 km/h 17.7 km/h 85% 0.0 mm 26 W/m2
15:47 5.5 °C 3.3 °C 1007.1 hPa ESE 6.4 km/h 24.1 km/h 86% 0.0 mm 26 W/m2
15:52 5.5 °C 3.3 °C 1007.1 hPa East 4.7 km/h 11.3 km/h 86% 0.0 mm 30 W/m2
15:57 5.4 °C 3.1 °C 1006.8 hPa East 11.1 km/h 17.7 km/h 85% 0.0 mm 30 W/m2
16:02 5.4 °C 3.1 °C 1007.1 hPa ENE 6.4 km/h 17.7 km/h 85% 0.0 mm 21 W/m2
16:07 5.3 °C 3 °C 1006.8 hPa ESE 6.4 km/h 14.5 km/h 85% 0.0 mm 16 W/m2
16:12 5.2 °C 2.9 °C 1006.8 hPa ESE 13 km/h 17.7 km/h 85% 0.0 mm 14 W/m2
16:17 5.2 °C 2.9 °C 1006.8 hPa ESE 11.1 km/h 16.1 km/h 85% 0.0 mm 11 W/m2
16:22 5.1 °C 2.8 °C 1006.8 hPa East 1.4 km/h 17.7 km/h 85% 0.0 mm 7 W/m2
16:27 5.1 °C 2.8 °C 1006.4 hPa NE 3.2 km/h 9.7 km/h 85% 0.0 mm 5 W/m2
16:32 5 °C 2.7 °C 1006.4 hPa East 3.2 km/h 11.3 km/h 85% 0.0 mm 0 W/m2
16:37 4.9 °C 2.6 °C 1006.4 hPa SSE 3.2 km/h 8 km/h 85% 0.0 mm 0 W/m2
16:42 4.8 °C 2.7 °C 1006.4 hPa East 4.7 km/h 6.4 km/h 86% 0.0 mm 0 W/m2
16:47 4.7 °C 2.6 °C 1006.4 hPa ENE 3.2 km/h 6.4 km/h 86% 0.0 mm 0 W/m2
16:52 4.7 °C 2.6 °C 1006.1 hPa ENE 1.4 km/h 6.4 km/h 86% 0.0 mm 0 W/m2
16:57 4.7 °C 2.6 °C 1006.1 hPa ENE 3.2 km/h 4.8 km/h 86% 0.0 mm 0 W/m2
17:02 4.7 °C 2.6 °C 1006.1 hPa NE 1.4 km/h 1.6 km/h 86% 0.0 mm 0 W/m2
17:07 4.7 °C 2.7 °C 1006.1 hPa ENE 6.4 km/h 6.4 km/h 87% 0.0 mm 0 W/m2
17:12 4.7 °C 2.7 °C 1006.1 hPa East 4.7 km/h 12.9 km/h 87% 0.0 mm 0 W/m2
17:17 4.7 °C 2.7 °C 1006.1 hPa ESE 3.2 km/h 6.4 km/h 87% 0.0 mm 0 W/m2
17:22 4.8 °C 2.8 °C 1005.8 hPa East 3.2 km/h 14.5 km/h 87% 0.0 mm 0 W/m2
17:27 4.8 °C 2.8 °C 1005.8 hPa East 1.4 km/h 9.7 km/h 87% 0.0 mm 0 W/m2
17:32 4.8 °C 2.8 °C 1005.4 hPa ESE 4.7 km/h 14.5 km/h 87% 0.0 mm 0 W/m2
17:37 4.9 °C 2.9 °C 1005.1 hPa East 6.4 km/h 11.3 km/h 87% 0.0 mm 0 W/m2
17:42 4.9 °C 2.9 °C 1005.1 hPa ENE 3.2 km/h 14.5 km/h 87% 0.0 mm 0 W/m2
17:47 4.9 °C 2.9 °C 1005.1 hPa East 6.4 km/h 11.3 km/h 87% 0.0 mm 0 W/m2
17:52 4.9 °C 3.1 °C 1004.7 hPa East 3.2 km/h 4.8 km/h 88% 0.0 mm 0 W/m2
17:57 4.9 °C 3.1 °C 1004.7 hPa SE 4.7 km/h 9.7 km/h 88% 0.0 mm 0 W/m2
18:02 4.9 °C 3.1 °C 1004.4 hPa ENE 3.2 km/h 4.8 km/h 88% 0.0 mm 0 W/m2
18:07 4.8 °C 3 °C 1004.4 hPa ENE 1.4 km/h 6.4 km/h 88% 0.0 mm 0 W/m2
18:12 4.9 °C 3.2 °C 1004.4 hPa East 3.2 km/h 4.8 km/h 89% 0.0 mm 0 W/m2
18:17 4.8 °C 3.1 °C 1004.1 hPa East 3.2 km/h 9.7 km/h 89% 0.0 mm 0 W/m2
18:22 4.8 °C 3.1 °C 1004.1 hPa ESE 4.7 km/h 12.9 km/h 89% 0.0 mm 0 W/m2
18:27 4.7 °C 3 °C 1004.1 hPa Calm   9.7 km/h 89% 0.0 mm 0 W/m2
18:32 4.7 °C 3 °C 1003.7 hPa East 7.9 km/h 11.3 km/h 89% 0.0 mm 0 W/m2
18:37 4.7 °C 3 °C 1003.7 hPa ENE 1.4 km/h 11.3 km/h 89% 0.0 mm 0 W/m2
18:42 4.7 °C 3.2 °C 1003.4 hPa ENE 4.7 km/h 6.4 km/h 90% 0.0 mm 0 W/m2
18:47 4.7 °C 3.2 °C 1003.0 hPa ESE 4.7 km/h 12.9 km/h 90% 0.0 mm 0 W/m2
18:52 4.7 °C 3.2 °C 1002.7 hPa ENE 1.4 km/h 12.9 km/h 90% 0.0 mm 0 W/m2
18:57 4.6 °C 3.1 °C 1002.7 hPa East 6.4 km/h 6.4 km/h 90% 0.0 mm 0 W/m2
19:02 4.6 °C 3.1 °C 1002.4 hPa East 9.7 km/h 14.5 km/h 90% 0.0 mm 0 W/m2
19:07 4.6 °C 2.9 °C 1002.4 hPa ENE 6.4 km/h 12.9 km/h 89% 0.0 mm 0 W/m2
19:12 4.6 °C 2.9 °C 1002.0 hPa East 6.4 km/h 14.5 km/h 89% 0.0 mm 0 W/m2
19:17 4.6 °C 2.9 °C 1002.0 hPa SE 3.2 km/h 14.5 km/h 89% 0.0 mm 0 W/m2
19:22 4.6 °C 2.8 °C 1002.0 hPa ENE 3.2 km/h 11.3 km/h 88% 0.0 mm 0 W/m2
19:27 4.6 °C 2.8 °C 1002.0 hPa East 13 km/h 14.5 km/h 88% 0.0 mm 0 W/m2
19:32 4.6 °C 2.8 °C 1001.7 hPa ESE 1.4 km/h 9.7 km/h 88% 0.0 mm 0 W/m2
19:37 4.6 °C 2.8 °C 1001.4 hPa East 6.4 km/h 14.5 km/h 88% 0.0 mm 0 W/m2
19:42 4.6 °C 2.8 °C 1001.7 hPa ENE 3.2 km/h 4.8 km/h 88% 0.0 mm 0 W/m2
19:47 4.6 °C 2.8 °C 1001.4 hPa SE 3.2 km/h 8 km/h 88% 0.0 mm 0 W/m2
19:52 4.6 °C 2.8 °C 1001.4 hPa East 11.1 km/h 11.3 km/h 88% 0.0 mm 0 W/m2
19:57 4.6 °C 2.8 °C 1001.4 hPa SE 1.4 km/h 4.8 km/h 88% 0.0 mm 0 W/m2
20:02 4.6 °C 2.6 °C 1001.4 hPa NE 4.7 km/h 17.7 km/h 87% 0.0 mm 0 W/m2
20:07 4.7 °C 2.7 °C 1001.4 hPa ESE 4.7 km/h 8 km/h 87% 0.0 mm 0 W/m2
20:12 4.7 °C 2.6 °C 1001.0 hPa East 3.2 km/h 17.7 km/h 86% 0.0 mm 0 W/m2
20:17 4.8 °C 2.7 °C 1001.0 hPa East 4.7 km/h 8 km/h 86% 0.0 mm 0 W/m2
20:22 4.8 °C 2.5 °C 1001.0 hPa ESE 4.7 km/h 12.9 km/h 85% 0.0 mm 0 W/m2
20:27 4.8 °C 2.5 °C 1000.7 hPa ESE 11.1 km/h 12.9 km/h 85% 0.0 mm 0 W/m2
20:32 4.8 °C 2.5 °C 1000.7 hPa ENE 7.9 km/h 12.9 km/h 85% 0.0 mm 0 W/m2
20:37 4.8 °C 2.3 °C 1000.7 hPa ESE 7.9 km/h 14.5 km/h 84% 0.0 mm 0 W/m2
20:42 4.8 °C 2.3 °C 1000.3 hPa ESE 9.7 km/h 11.3 km/h 84% 0.0 mm 0 W/m2
20:47 4.8 °C 2.3 °C 1000.3 hPa SE 11.1 km/h 16.1 km/h 84% 0.0 mm 0 W/m2
20:52 4.8 °C 2.3 °C 1000.3 hPa ENE 4.7 km/h 12.9 km/h 84% 0.0 mm 0 W/m2
20:57 4.8 °C 2.3 °C 1000.3 hPa ENE 4.7 km/h 9.7 km/h 84% 0.0 mm 0 W/m2
21:02 4.8 °C 2.3 °C 1000.0 hPa East 3.2 km/h 6.4 km/h 84% 0.0 mm 0 W/m2
21:07 4.8 °C 2.3 °C 1000.0 hPa ESE 13 km/h 12.9 km/h 84% 0.0 mm 0 W/m2
21:12 4.7 °C 2.4 °C 1000.0 hPa East 4.7 km/h 4.8 km/h 85% 0.0 mm 0 W/m2
21:17 4.7 °C 2.4 °C 999.7 hPa ENE 4.7 km/h 8 km/h 85% 0.0 mm 0 W/m2
21:22 4.6 °C 2.3 °C 999.7 hPa NE 3.2 km/h 14.5 km/h 85% 0.0 mm 0 W/m2
21:28 4.6 °C 2.5 °C 999.7 hPa ENE 1.4 km/h 3.2 km/h 86% 0.0 mm 0 W/m2
21:33 4.6 °C 2.5 °C 999.7 hPa East 1.4 km/h 14.5 km/h 86% 0.0 mm 0 W/m2
21:38 4.6 °C 2.5 °C 999.3 hPa NE 3.2 km/h 9.7 km/h 86% 0.0 mm 0 W/m2
21:43 4.5 °C 2.4 °C 999.3 hPa ENE 3.2 km/h 6.4 km/h 86% 0.0 mm 0 W/m2
21:48 4.5 °C 2.4 °C 999.3 hPa East 6.4 km/h 6.4 km/h 86% 0.0 mm 0 W/m2
21:53 4.6 °C 2.5 °C 999.3 hPa East 3.2 km/h 11.3 km/h 86% 0.0 mm 0 W/m2
21:58 4.5 °C 2.5 °C 999.0 hPa East 7.9 km/h 8 km/h 87% 0.0 mm 0 W/m2
22:03 4.4 °C 2.4 °C 998.6 hPa SE 3.2 km/h 11.3 km/h 87% 0.2 mm 0 W/m2
22:08 4.4 °C 2.6 °C 998.3 hPa ENE 1.4 km/h 8 km/h 88% 0.2 mm 0 W/m2
22:13 4.3 °C 2.5 °C 998.3 hPa East 7.9 km/h 11.3 km/h 88% 0.2 mm 0 W/m2
22:18 4.3 °C 2.6 °C 998.0 hPa ESE 4.7 km/h 11.3 km/h 89% 0.2 mm 0 W/m2
22:23 4.2 °C 2.5 °C 998.0 hPa ENE 9.7 km/h 16.1 km/h 89% 0.2 mm 0 W/m2
22:28 4.2 °C 2.7 °C 998.0 hPa ESE 6.4 km/h 11.3 km/h 90% 0.2 mm 0 W/m2
22:33 4.1 °C 2.6 °C 997.6 hPa East 3.2 km/h 9.7 km/h 90% 0.5 mm 0 W/m2
22:38 4.1 °C 2.6 °C 997.6 hPa Calm   11.3 km/h 90% 0.5 mm 0 W/m2
22:43 4.1 °C 2.6 °C 997.3 hPa ENE 4.7 km/h 8 km/h 90% 0.5 mm 0 W/m2
22:48 4.1 °C 2.8 °C 997.3 hPa ESE 1.4 km/h 6.4 km/h 91% 0.5 mm 0 W/m2
22:53 4.1 °C 2.8 °C 997.0 hPa ENE 6.4 km/h 9.7 km/h 91% 0.5 mm 0 W/m2
22:58 4.2 °C 2.7 °C 997.0 hPa East 14.3 km/h 14.5 km/h 90% 0.5 mm 0 W/m2
23:03 4.3 °C 2.8 °C 997.0 hPa East 6.4 km/h 14.5 km/h 90% 0.2 mm 0 W/m2
23:08 4.3 °C 2.8 °C 997.0 hPa NE 4.7 km/h 11.3 km/h 90% 0.2 mm 0 W/m2
23:13 4.4 °C 3.1 °C 997.0 hPa East 17.7 km/h 17.7 km/h 91% 0.2 mm 0 W/m2
23:18 4.4 °C 3.1 °C 997.0 hPa ESE 4.7 km/h 14.5 km/h 91% 0.5 mm 0 W/m2
23:23 4.3 °C 3.1 °C 997.0 hPa ESE 4.7 km/h 14.5 km/h 92% 0.5 mm 0 W/m2
23:28 4.3 °C 3.1 °C 996.6 hPa ESE 3.2 km/h 12.9 km/h 92% 0.8 mm 0 W/m2
23:33 4.3 °C 3.1 °C 996.6 hPa ESE 6.4 km/h 11.3 km/h 92% 0.5 mm 0 W/m2
23:38 4.2 °C 3.2 °C 996.6 hPa ENE 4.7 km/h 6.4 km/h 93% 0.5 mm 0 W/m2
23:43 4.3 °C 3.3 °C 996.6 hPa ESE 1.4 km/h 8 km/h 93% 0.5 mm 0 W/m2
23:48 4.3 °C 3.3 °C 996.6 hPa ENE 4.7 km/h 9.7 km/h 93% 0.5 mm 0 W/m2
23:53 4.3 °C 3.4 °C 996.6 hPa ENE 6.4 km/h 6.4 km/h 94% 0.5 mm 0 W/m2
23:58 4.4 °C 3.5 °C 997.0 hPa East 7.9 km/h 9.7 km/h 94% 0.8 mm 0 W/m2
Juneau County Weather
Compliments of Weather Underground - 4 mb